createdAt,value
2019-01-25T00:00:36.938Z,7.87
2019-01-25T00:03:09.800Z,6.23
2019-01-25T00:05:34.648Z,7.70
2019-01-25T00:08:01.866Z,6.70
2019-01-25T00:10:30.081Z,7.37
2019-01-25T00:12:57.303Z,7.70
2019-01-25T00:15:25.450Z,8.63
2019-01-25T00:17:52.607Z,8.53
2019-01-25T00:20:19.838Z,8.70
2019-01-25T00:22:47.051Z,7.73
2019-01-25T00:25:14.371Z,7.37
2019-01-25T00:27:41.587Z,8.00
2019-01-25T00:30:10.544Z,8.07
2019-01-25T00:32:37.719Z,7.47
2019-01-25T00:35:05.784Z,8.50
2019-01-25T00:37:33.034Z,8.23
2019-01-25T00:40:06.078Z,8.00
2019-01-25T00:42:29.667Z,8.27
2019-01-25T00:44:56.962Z,8.17
2019-01-25T00:47:24.075Z,7.43
2019-01-25T00:49:53.143Z,7.63
2019-01-25T00:52:20.349Z,7.60
2019-01-25T00:54:49.276Z,7.13
2019-01-25T00:57:17.512Z,7.07
2019-01-25T00:59:44.734Z,5.93
2019-01-25T01:02:11.891Z,7.20
2019-01-25T01:04:40.772Z,7.33
2019-01-25T01:07:07.979Z,6.83
2019-01-25T01:09:35.422Z,8.20
2019-01-25T01:12:02.843Z,7.97
2019-01-25T01:14:30.040Z,8.67
2019-01-25T01:16:57.393Z,9.67
2019-01-25T01:19:24.742Z,7.07
2019-01-25T01:21:51.953Z,5.20
2019-01-25T01:24:20.945Z,8.20
2019-01-25T01:26:48.051Z,7.17
2019-01-25T01:29:16.644Z,7.23
2019-01-25T01:31:45.721Z,9.43
2019-01-25T01:34:12.867Z,8.33
2019-01-25T01:36:41.857Z,8.97
2019-01-25T01:39:09.120Z,8.07
2019-01-25T01:41:38.240Z,7.67
2019-01-25T01:44:05.532Z,7.90
2019-01-25T01:46:32.952Z,9.00
2019-01-25T01:49:00.261Z,9.90
2019-01-25T01:51:27.505Z,6.53
2019-01-25T01:53:54.620Z,8.07
2019-01-25T01:56:21.928Z,6.97
2019-01-25T01:58:49.164Z,8.97
2019-01-25T02:01:16.655Z,9.33
2019-01-25T02:03:43.759Z,9.37
2019-01-25T02:06:10.868Z,8.70
2019-01-25T02:08:37.969Z,9.20
2019-01-25T02:11:05.079Z,9.30
2019-01-25T02:13:32.309Z,10.13
2019-01-25T02:15:59.451Z,9.27
2019-01-25T02:18:26.568Z,9.07
2019-01-25T02:20:53.764Z,9.10
2019-01-25T02:23:20.883Z,9.13
2019-01-25T02:25:47.986Z,8.67
2019-01-25T02:28:15.091Z,9.93
2019-01-25T02:30:42.201Z,8.23
2019-01-25T02:33:09.325Z,9.03
2019-01-25T02:35:38.034Z,9.17
2019-01-25T02:38:07.028Z,7.80
2019-01-25T02:40:39.272Z,8.03
2019-01-25T02:43:03.747Z,7.43
2019-01-25T02:45:30.989Z,7.33
2019-01-25T02:47:58.245Z,8.80
2019-01-25T02:50:27.076Z,7.97
2019-01-25T02:52:54.363Z,9.03
2019-01-25T02:55:21.472Z,9.57
2019-01-25T02:57:50.382Z,9.70
2019-01-25T03:00:22.496Z,9.13
2019-01-25T03:02:50.015Z,9.20
2019-01-25T03:05:19.245Z,9.00
2019-01-25T03:07:46.956Z,8.43
2019-01-25T03:10:14.810Z,8.00
2019-01-25T03:12:42.148Z,9.00
2019-01-25T03:15:12.120Z,9.50
2019-01-25T03:17:39.520Z,8.43
2019-01-25T03:20:07.595Z,9.53
2019-01-25T03:22:34.947Z,9.77
2019-01-25T03:25:02.171Z,9.00
2019-01-25T03:27:29.350Z,7.63
2019-01-25T03:29:56.603Z,9.73
2019-01-25T03:32:23.958Z,9.13
2019-01-25T03:34:51.087Z,9.83
2019-01-25T03:37:18.188Z,9.13
2019-01-25T03:39:47.305Z,9.83
2019-01-25T03:42:14.610Z,11.30
2019-01-25T03:44:44.645Z,10.00
2019-01-25T03:47:12.024Z,9.87
2019-01-25T03:49:39.236Z,11.00
2019-01-25T03:52:06.451Z,10.97
2019-01-25T03:54:33.656Z,11.90
2019-01-25T03:57:00.852Z,12.30
2019-01-25T03:59:28.145Z,12.80
2019-01-25T04:01:55.471Z,11.97
2019-01-25T04:04:22.760Z,13.63
2019-01-25T04:06:50.888Z,12.83
2019-01-25T04:09:18.075Z,12.87
2019-01-25T04:11:45.309Z,12.57
2019-01-25T04:14:12.593Z,12.27
2019-01-25T04:16:40.036Z,13.73
2019-01-25T04:19:07.247Z,13.70
2019-01-25T04:21:34.479Z,13.03
2019-01-25T04:24:02.040Z,12.67
2019-01-25T04:26:30.449Z,13.90
2019-01-25T04:28:58.717Z,16.00
2019-01-25T04:31:28.482Z,11.83
2019-01-25T04:33:55.742Z,14.63
2019-01-25T04:36:26.466Z,14.63
2019-01-25T04:38:57.836Z,14.00
2019-01-25T04:41:27.077Z,11.73
2019-01-25T04:43:54.185Z,11.47
2019-01-25T04:46:21.304Z,12.33
2019-01-25T04:48:48.400Z,12.97
2019-01-25T04:51:15.535Z,11.63
2019-01-25T04:53:42.634Z,14.53
2019-01-25T04:56:09.733Z,14.70
2019-01-25T04:58:36.835Z,16.03
2019-01-25T05:01:08.553Z,15.17
2019-01-25T05:03:37.803Z,13.30
2019-01-25T05:06:05.917Z,13.93
2019-01-25T05:08:33.028Z,13.93
2019-01-25T05:11:00.197Z,17.27
2019-01-25T05:13:27.299Z,14.60
2019-01-25T05:15:54.417Z,15.80
2019-01-25T05:18:21.619Z,16.00
2019-01-25T05:20:50.668Z,15.60
2019-01-25T05:23:17.726Z,16.30
2019-01-25T05:25:44.839Z,18.93
2019-01-25T05:28:18.479Z,17.60
2019-01-25T05:31:11.198Z,14.13
2019-01-25T05:33:38.313Z,17.33
2019-01-25T05:36:05.528Z,15.77
2019-01-25T05:38:32.666Z,16.87
2019-01-25T05:40:59.799Z,17.20
2019-01-25T05:43:30.613Z,16.77
2019-01-25T05:45:57.716Z,17.80
2019-01-25T05:48:28.291Z,17.17
2019-01-25T05:50:59.580Z,17.97
2019-01-25T05:53:26.685Z,17.20
2019-01-25T05:55:53.801Z,16.27
2019-01-25T05:58:22.301Z,17.30
2019-01-25T06:00:50.652Z,15.03
2019-01-25T06:03:17.967Z,17.00
2019-01-25T06:05:45.966Z,16.67
2019-01-25T06:08:30.686Z,17.47
2019-01-25T06:11:08.842Z,15.10
2019-01-25T06:13:39.537Z,15.17
2019-01-25T06:16:07.021Z,15.37
2019-01-25T06:18:34.391Z,16.37
2019-01-25T06:21:01.708Z,16.57
2019-01-25T06:23:29.014Z,16.10
2019-01-25T06:25:57.354Z,17.37
2019-01-25T06:28:24.592Z,15.67
2019-01-25T06:30:52.565Z,17.20
2019-01-25T06:33:19.952Z,17.47
2019-01-25T06:35:47.404Z,16.87
2019-01-25T06:38:14.750Z,14.30
2019-01-25T06:40:41.888Z,14.77
2019-01-25T06:43:08.990Z,15.43
2019-01-25T06:45:36.084Z,16.30
2019-01-25T06:48:03.427Z,16.60
2019-01-25T06:50:30.568Z,16.97
2019-01-25T06:52:57.665Z,17.90
2019-01-25T06:55:24.777Z,16.10
2019-01-25T06:58:11.529Z,15.20
2019-01-25T07:00:43.279Z,16.40
2019-01-25T07:03:10.369Z,16.13
2019-01-25T07:05:37.470Z,14.33
2019-01-25T07:08:04.565Z,15.00
2019-01-25T07:10:31.669Z,16.10
2019-01-25T07:12:58.762Z,16.30
2019-01-25T07:15:25.864Z,17.27
2019-01-25T07:17:52.970Z,15.43
2019-01-25T07:20:20.061Z,15.93
2019-01-25T07:22:47.171Z,15.77
2019-01-25T07:25:14.566Z,14.70
2019-01-25T07:27:41.662Z,15.27
2019-01-25T07:30:09.836Z,14.10
2019-01-25T07:32:36.938Z,17.93
2019-01-25T07:35:04.944Z,15.63
2019-01-25T07:37:32.096Z,15.87
2019-01-25T07:40:00.658Z,15.47
2019-01-25T07:42:28.097Z,16.20
2019-01-25T07:44:55.504Z,14.90
2019-01-25T07:47:22.606Z,16.50
2019-01-25T07:49:49.705Z,15.27
2019-01-25T07:52:16.839Z,15.40
2019-01-25T07:54:44.041Z,13.80
2019-01-25T07:57:11.092Z,14.93
2019-01-25T07:59:38.205Z,13.77
2019-01-25T08:02:05.303Z,15.63
2019-01-25T08:04:32.412Z,14.97
2019-01-25T08:07:02.907Z,17.87
2019-01-25T08:09:30.013Z,16.83
2019-01-25T08:11:57.119Z,17.27
2019-01-25T08:14:24.278Z,16.53
2019-01-25T08:16:51.358Z,15.57
2019-01-25T08:19:21.249Z,13.87
2019-01-25T08:21:48.540Z,14.27
2019-01-25T08:24:15.710Z,15.43
2019-01-25T08:26:45.887Z,14.50
2019-01-25T08:29:12.981Z,14.70
2019-01-25T08:31:42.441Z,14.67
2019-01-25T08:34:09.575Z,14.70
2019-01-25T08:36:36.917Z,14.30
2019-01-25T08:39:07.545Z,16.00
2019-01-25T08:41:34.795Z,15.43
2019-01-25T08:44:05.124Z,14.73
2019-01-25T08:46:33.871Z,14.33
2019-01-25T08:49:01.469Z,13.63
2019-01-25T08:51:28.569Z,14.87
2019-01-25T08:53:55.744Z,12.83
2019-01-25T08:56:22.836Z,14.53
2019-01-25T08:58:50.146Z,13.57
2019-01-25T09:01:17.341Z,12.30
2019-01-25T09:03:47.361Z,12.80
2019-01-25T09:06:14.464Z,14.53
2019-01-25T09:08:49.259Z,13.80
2019-01-25T09:11:16.412Z,13.60
2019-01-25T09:13:43.521Z,14.30
2019-01-25T09:16:10.644Z,13.03
2019-01-25T09:18:37.775Z,12.83
2019-01-25T09:21:16.160Z,13.80
2019-01-25T09:23:43.370Z,11.90
2019-01-25T09:26:10.491Z,14.07
2019-01-25T09:28:37.593Z,12.50
2019-01-25T09:31:04.809Z,14.40
2019-01-25T09:33:34.301Z,13.93
2019-01-25T09:36:08.994Z,13.90
2019-01-25T09:38:36.124Z,13.63
2019-01-25T09:41:03.354Z,13.30
2019-01-25T09:43:30.472Z,12.43
2019-01-25T09:45:57.604Z,12.97
2019-01-25T09:48:24.721Z,14.20
2019-01-25T09:50:52.814Z,13.43
2019-01-25T09:53:20.462Z,14.50
2019-01-25T09:55:47.553Z,15.73
2019-01-25T09:58:17.328Z,15.03
2019-01-25T10:00:56.888Z,15.10
2019-01-25T10:03:26.669Z,14.27
2019-01-25T10:05:56.571Z,14.87
2019-01-25T10:08:25.851Z,14.87
2019-01-25T10:10:52.952Z,14.97
2019-01-25T10:13:20.081Z,15.73
2019-01-25T10:15:47.186Z,14.40
2019-01-25T10:18:25.110Z,14.67
2019-01-25T10:20:55.245Z,14.43
2019-01-25T10:23:22.446Z,14.73
2019-01-25T10:25:55.251Z,15.37
2019-01-25T10:28:24.387Z,13.80
2019-01-25T10:30:51.767Z,14.70
2019-01-25T10:33:20.325Z,14.53
2019-01-25T10:35:47.600Z,14.60
2019-01-25T10:38:14.854Z,13.93
2019-01-25T10:40:42.014Z,13.93
2019-01-25T10:43:12.000Z,14.97
2019-01-25T10:45:39.921Z,15.10
2019-01-25T10:48:07.450Z,14.73
2019-01-25T10:50:34.657Z,14.13
2019-01-25T10:53:03.741Z,13.70
2019-01-25T10:55:31.054Z,13.33
2019-01-25T10:57:58.165Z,15.07
2019-01-25T11:00:25.446Z,14.03
2019-01-25T11:02:57.873Z,14.33
2019-01-25T11:05:23.944Z,15.73
2019-01-25T11:07:51.115Z,14.63
2019-01-25T11:10:20.304Z,13.40
2019-01-25T11:12:47.637Z,15.10
2019-01-25T11:15:18.865Z,13.73
2019-01-25T11:17:46.206Z,11.00
2019-01-25T11:20:16.075Z,10.80
2019-01-25T11:22:43.433Z,9.73
2019-01-25T11:25:14.372Z,10.27
2019-01-25T11:27:41.729Z,9.97
2019-01-25T11:30:10.530Z,9.17
2019-01-25T11:32:38.791Z,8.90
2019-01-25T11:35:06.107Z,8.70
2019-01-25T11:37:33.484Z,8.10
2019-01-25T11:40:00.801Z,8.10
2019-01-25T11:42:27.982Z,7.93
2019-01-25T11:44:55.335Z,9.07
2019-01-25T11:47:22.465Z,7.50
2019-01-25T11:49:49.872Z,7.37
2019-01-25T11:52:18.261Z,6.83
2019-01-25T11:54:45.472Z,7.60
2019-01-25T11:57:15.371Z,8.13
2019-01-25T11:59:43.580Z,6.53
2019-01-25T12:02:11.765Z,5.87
2019-01-25T12:04:42.166Z,6.20
2019-01-25T12:07:10.443Z,6.50
2019-01-25T12:09:38.895Z,6.23
2019-01-25T12:12:06.016Z,6.03
2019-01-25T12:14:33.152Z,5.60
2019-01-25T12:17:01.930Z,6.43
2019-01-25T12:19:29.372Z,6.07
2019-01-25T12:21:56.549Z,6.40
2019-01-25T12:24:23.638Z,6.60
2019-01-25T12:26:50.741Z,5.70
2019-01-25T12:29:20.115Z,6.43
2019-01-25T12:31:47.382Z,7.40
2019-01-25T12:34:14.475Z,6.57
2019-01-25T12:36:41.601Z,5.83
2019-01-25T12:39:09.208Z,6.50
2019-01-25T12:41:36.315Z,5.80
2019-01-25T12:44:03.876Z,6.20
2019-01-25T12:46:32.113Z,5.23
2019-01-25T12:48:59.383Z,6.07
2019-01-25T12:51:35.982Z,6.13
2019-01-25T12:54:03.688Z,6.73
2019-01-25T12:56:30.794Z,7.43
2019-01-25T12:58:58.020Z,5.90
2019-01-25T13:01:25.117Z,6.90
2019-01-25T13:03:52.332Z,7.00
2019-01-25T13:06:19.500Z,6.63
2019-01-25T13:08:46.593Z,6.57
2019-01-25T13:11:13.677Z,6.83
2019-01-25T13:13:40.781Z,7.53
2019-01-25T13:16:07.933Z,6.70
2019-01-25T13:18:35.050Z,6.50
2019-01-25T13:21:02.145Z,6.83
2019-01-25T13:23:31.809Z,6.30
2019-01-25T13:25:58.923Z,7.17
2019-01-25T13:28:26.186Z,6.37
2019-01-25T13:30:56.605Z,6.77
2019-01-25T13:33:23.698Z,6.73
2019-01-25T13:35:50.789Z,6.83
2019-01-25T13:38:18.936Z,6.40
2019-01-25T13:40:47.806Z,6.30
2019-01-25T13:43:14.900Z,6.80
2019-01-25T13:45:42.020Z,6.40
2019-01-25T13:48:09.228Z,5.63
2019-01-25T13:50:38.052Z,6.93
2019-01-25T13:53:07.100Z,6.60
2019-01-25T13:55:34.223Z,6.40
2019-01-25T13:58:01.365Z,7.07
2019-01-25T14:00:30.539Z,6.57
2019-01-25T14:02:57.674Z,6.43
2019-01-25T14:05:24.798Z,5.67
2019-01-25T14:07:54.649Z,5.70
2019-01-25T14:10:26.265Z,6.13
2019-01-25T14:12:53.363Z,6.13
2019-01-25T14:15:20.554Z,7.43
2019-01-25T14:17:49.332Z,5.97
2019-01-25T14:20:23.504Z,6.53
2019-01-25T14:22:49.555Z,7.23
2019-01-25T14:25:19.500Z,7.70
2019-01-25T14:27:46.665Z,6.37
2019-01-25T14:30:25.695Z,6.03
2019-01-25T14:32:52.788Z,5.80
2019-01-25T14:35:20.012Z,5.63
2019-01-25T14:37:49.891Z,6.03
2019-01-25T14:40:17.007Z,5.97
2019-01-25T14:42:44.129Z,5.33
2019-01-25T14:45:20.274Z,5.63
2019-01-25T14:47:47.481Z,5.50
2019-01-25T14:50:16.677Z,5.80
2019-01-25T14:52:43.773Z,5.47
2019-01-25T14:55:11.012Z,5.27
2019-01-25T14:57:38.227Z,5.70
2019-01-25T15:00:07.621Z,6.03
2019-01-25T15:02:35.009Z,6.10
2019-01-25T15:05:02.205Z,5.90
2019-01-25T15:07:29.304Z,6.17
2019-01-25T15:09:56.412Z,5.13
2019-01-25T15:12:23.510Z,5.33
2019-01-25T15:14:50.595Z,6.13
2019-01-25T15:17:17.689Z,6.93
2019-01-25T15:19:44.920Z,6.67
2019-01-25T15:22:12.007Z,6.23
2019-01-25T15:24:39.102Z,6.50
2019-01-25T15:27:06.297Z,6.27
2019-01-25T15:29:33.441Z,7.00
2019-01-25T15:32:00.580Z,6.03
2019-01-25T15:34:27.690Z,6.63
2019-01-25T15:36:54.783Z,6.13
2019-01-25T15:39:21.925Z,6.43
2019-01-25T15:41:49.035Z,6.60
2019-01-25T15:44:16.134Z,5.77
2019-01-25T15:46:43.238Z,6.30
2019-01-25T15:49:10.384Z,6.53
2019-01-25T15:51:37.560Z,6.40
2019-01-25T15:54:04.738Z,7.07
2019-01-25T15:56:31.828Z,6.83
2019-01-25T15:58:58.927Z,6.63
2019-01-25T16:01:26.029Z,8.20
2019-01-25T16:03:53.136Z,7.80
2019-01-25T16:06:20.279Z,7.57
2019-01-25T16:08:47.377Z,8.20
2019-01-25T16:11:14.473Z,7.33
2019-01-25T16:13:41.568Z,8.00
2019-01-25T16:16:08.665Z,8.00
2019-01-25T16:18:35.777Z,7.80
2019-01-25T16:21:03.017Z,7.77
2019-01-25T16:23:30.132Z,7.90
2019-01-25T16:25:57.218Z,8.50
2019-01-25T16:28:24.348Z,7.43
2019-01-25T16:30:51.464Z,7.43
2019-01-25T16:33:18.578Z,7.67
2019-01-25T16:35:45.701Z,7.53
2019-01-25T16:38:12.815Z,7.80
2019-01-25T16:40:39.911Z,7.07
2019-01-25T16:43:08.772Z,7.10
2019-01-25T16:45:38.193Z,7.23
2019-01-25T16:48:05.886Z,7.87
2019-01-25T16:50:33.549Z,7.00
2019-01-25T16:53:00.683Z,6.97
2019-01-25T16:55:27.887Z,8.07
2019-01-25T16:57:54.977Z,6.90
2019-01-25T17:00:30.726Z,9.30
2019-01-25T17:02:57.825Z,7.43
2019-01-25T17:05:25.126Z,7.57
2019-01-25T17:07:52.236Z,7.43
2019-01-25T17:10:19.348Z,7.67
2019-01-25T17:12:46.480Z,7.67
2019-01-25T17:15:14.202Z,8.50
2019-01-25T17:17:41.497Z,9.23
2019-01-25T17:20:08.987Z,9.27
2019-01-25T17:22:36.124Z,8.43
2019-01-25T17:25:04.187Z,8.03
2019-01-25T17:27:31.304Z,8.23
2019-01-25T17:29:58.421Z,9.57
2019-01-25T17:32:25.530Z,7.80
2019-01-25T17:34:52.624Z,8.67
2019-01-25T17:37:19.726Z,8.97
2019-01-25T17:39:46.921Z,8.47
2019-01-25T17:42:14.018Z,8.57
2019-01-25T17:44:41.626Z,8.97
2019-01-25T17:47:08.789Z,8.13
2019-01-25T17:49:35.881Z,8.77
2019-01-25T17:52:03.226Z,9.57
2019-01-25T17:54:30.357Z,9.90
2019-01-25T17:56:57.484Z,8.57
2019-01-25T17:59:25.728Z,8.17
2019-01-25T18:01:52.832Z,7.70
2019-01-25T18:04:19.980Z,8.33
2019-01-25T18:06:47.076Z,8.50
2019-01-25T18:09:14.213Z,9.20
2019-01-25T18:11:41.299Z,9.03
2019-01-25T18:14:08.476Z,9.33
2019-01-25T18:16:35.898Z,8.90
2019-01-25T18:19:03.348Z,9.00
2019-01-25T18:21:30.699Z,8.93
2019-01-25T18:23:58.041Z,8.57
2019-01-25T18:26:27.038Z,8.10
2019-01-25T18:29:19.744Z,8.80
2019-01-25T18:31:48.650Z,7.50
2019-01-25T18:34:16.054Z,8.30
2019-01-25T18:36:43.414Z,8.17
2019-01-25T18:39:12.124Z,7.27
2019-01-25T18:41:41.147Z,8.40
2019-01-25T18:44:08.442Z,8.07
2019-01-25T18:46:37.357Z,7.77
2019-01-25T18:49:04.450Z,7.23
2019-01-25T18:51:31.561Z,7.30
2019-01-25T18:53:58.673Z,7.90
2019-01-25T18:56:26.098Z,6.40
2019-01-25T18:58:55.169Z,6.60
2019-01-25T19:01:22.284Z,7.73
2019-01-25T19:03:50.746Z,7.07
2019-01-25T19:06:18.021Z,6.77
2019-01-25T19:08:46.918Z,7.40
2019-01-25T19:11:14.261Z,6.67
2019-01-25T19:13:41.599Z,5.90
2019-01-25T19:16:10.115Z,6.43
2019-01-25T19:18:37.467Z,5.93
2019-01-25T19:21:04.677Z,6.03
2019-01-25T19:23:32.875Z,6.20
2019-01-25T19:25:59.970Z,5.50
2019-01-25T19:28:27.552Z,5.60
2019-01-25T19:30:54.860Z,6.07
2019-01-25T19:33:23.398Z,5.40
2019-01-25T19:35:50.819Z,4.63
2019-01-25T19:38:20.203Z,4.60
2019-01-25T19:40:47.589Z,4.70
2019-01-25T19:43:16.613Z,3.27
2019-01-25T19:45:45.731Z,3.73
2019-01-25T19:48:13.032Z,3.73
2019-01-25T19:50:42.989Z,3.63
2019-01-25T19:53:10.595Z,4.00
2019-01-25T19:55:38.555Z,3.27
2019-01-25T19:58:07.712Z,3.10
2019-01-25T20:00:36.889Z,3.17
2019-01-25T20:03:05.951Z,3.50
2019-01-25T20:05:34.966Z,3.63
2019-01-25T20:08:02.654Z,3.63
2019-01-25T20:10:29.993Z,4.20
2019-01-25T20:12:57.569Z,3.57
2019-01-25T20:15:26.591Z,3.53
2019-01-25T20:17:54.149Z,3.57
2019-01-25T20:20:23.713Z,3.83
2019-01-25T20:22:53.286Z,3.50
2019-01-25T20:25:20.843Z,3.10
2019-01-25T20:27:48.184Z,3.43
2019-01-25T20:30:18.439Z,3.03
2019-01-25T20:32:45.917Z,3.23
2019-01-25T20:35:18.240Z,2.90
2019-01-25T20:37:48.343Z,2.80
2019-01-25T20:40:15.971Z,2.73
2019-01-25T20:42:43.241Z,2.90
2019-01-25T20:45:13.715Z,3.00
2019-01-25T20:47:41.209Z,3.03
2019-01-25T20:50:11.416Z,2.80
2019-01-25T20:52:40.570Z,3.00
2019-01-25T20:55:09.548Z,3.07
2019-01-25T20:57:38.469Z,2.73
2019-01-25T21:00:12.428Z,2.73
2019-01-25T21:02:39.893Z,3.27
2019-01-25T21:05:07.556Z,2.90
2019-01-25T21:07:35.118Z,2.70
2019-01-25T21:10:03.602Z,3.07
2019-01-25T21:12:31.225Z,3.90
2019-01-25T21:14:58.440Z,4.50
2019-01-25T21:17:25.549Z,5.83
2019-01-25T21:19:52.700Z,3.87
2019-01-25T21:22:19.822Z,4.47
2019-01-25T21:24:46.991Z,4.10
2019-01-25T21:27:14.663Z,3.90
2019-01-25T21:29:42.247Z,5.13
2019-01-25T21:32:09.546Z,3.60
2019-01-25T21:34:36.839Z,2.97
2019-01-25T21:37:04.169Z,3.10
2019-01-25T21:39:31.545Z,3.30
2019-01-25T21:41:58.676Z,3.30
2019-01-25T21:44:25.811Z,2.80
2019-01-25T21:46:56.537Z,2.70
2019-01-25T21:49:23.618Z,2.70
2019-01-25T21:51:50.776Z,3.10
2019-01-25T21:54:17.944Z,3.20
2019-01-25T21:56:45.058Z,3.27
2019-01-25T21:59:12.264Z,2.90
2019-01-25T22:01:42.323Z,3.20
2019-01-25T22:04:16.262Z,2.47
2019-01-25T22:06:43.412Z,3.00
2019-01-25T22:09:14.374Z,3.63
2019-01-25T22:11:46.719Z,4.10
2019-01-25T22:14:13.823Z,3.20
2019-01-25T22:16:40.982Z,3.90
2019-01-25T22:19:10.345Z,3.20
2019-01-25T22:21:39.988Z,3.67
2019-01-25T22:24:07.104Z,3.40
2019-01-25T22:26:36.062Z,4.27
2019-01-25T22:29:03.323Z,3.13
2019-01-25T22:31:30.428Z,3.10
2019-01-25T22:33:57.577Z,3.90
2019-01-25T22:36:24.753Z,3.73
2019-01-25T22:38:53.326Z,3.43
2019-01-25T22:41:49.981Z,3.90
2019-01-25T22:44:19.889Z,3.70
2019-01-25T22:46:50.572Z,3.77
2019-01-25T22:49:19.740Z,3.90
2019-01-25T22:51:46.866Z,4.27
2019-01-25T22:54:14.004Z,4.20
2019-01-25T22:56:41.117Z,4.67
2019-01-25T22:59:08.340Z,3.47
2019-01-25T23:01:35.772Z,4.20
2019-01-25T23:04:32.719Z,4.00
2019-01-25T23:07:21.720Z,3.50
2019-01-25T23:09:56.504Z,3.47
2019-01-25T23:12:23.612Z,3.23
2019-01-25T23:14:50.744Z,3.57
2019-01-25T23:17:17.865Z,3.63
2019-01-25T23:19:45.316Z,3.97
2019-01-25T23:22:12.496Z,3.63
2019-01-25T23:24:39.647Z,3.33
2019-01-25T23:27:06.740Z,3.67
2019-01-25T23:29:35.343Z,3.83
2019-01-25T23:32:02.848Z,3.87
2019-01-25T23:34:30.020Z,3.60
2019-01-25T23:36:57.114Z,3.93
2019-01-25T23:39:27.292Z,3.10
2019-01-25T23:41:54.726Z,3.70
2019-01-25T23:44:23.764Z,2.77
2019-01-25T23:46:56.730Z,3.53
2019-01-25T23:49:25.011Z,3.83
2019-01-25T23:51:52.444Z,4.17
2019-01-25T23:54:22.652Z,3.37
2019-01-25T23:56:52.103Z,4.07
2019-01-25T23:59:19.310Z,4.27
